createdAt,value
2022-09-01T00:11:37.428Z,55
2022-09-01T00:21:39.717Z,55
2022-09-01T00:31:42.012Z,55
2022-09-01T00:41:43.961Z,55
2022-09-01T00:51:46.235Z,56
2022-09-01T01:01:48.073Z,56
2022-09-01T01:11:49.735Z,56
2022-09-01T01:21:52.335Z,57
2022-09-01T01:31:54.834Z,57
2022-09-01T01:41:56.992Z,58
2022-09-01T01:51:59.570Z,58
2022-09-01T02:02:11.474Z,59
2022-09-01T02:12:15.006Z,59
2022-09-01T02:22:15.580Z,60
2022-09-01T02:32:17.598Z,60
2022-09-01T02:42:19.562Z,61
2022-09-01T02:52:21.554Z,62
2022-09-01T03:02:23.857Z,63
2022-09-01T03:12:26.306Z,64
2022-09-01T03:22:28.410Z,65
2022-09-01T03:32:30.242Z,65
2022-09-01T03:42:31.918Z,65
2022-09-01T03:52:34.469Z,65
2022-09-01T04:02:36.561Z,66
2022-09-01T04:12:38.510Z,67
2022-09-01T04:22:40.187Z,67
2022-09-01T04:32:42.435Z,66
2022-09-01T04:42:45.096Z,66
2022-09-01T04:52:47.398Z,67
2022-09-01T05:02:49.166Z,66
2022-09-01T05:12:50.860Z,65
2022-09-01T05:22:52.893Z,65
2022-09-01T05:32:55.082Z,64
2022-09-01T05:42:56.875Z,64
2022-09-01T05:52:58.975Z,65
2022-09-01T06:03:01.359Z,65
2022-09-01T06:13:03.262Z,63
2022-09-01T06:23:05.239Z,62
2022-09-01T06:33:06.961Z,61
2022-09-01T06:43:08.927Z,60
2022-09-01T06:53:34.910Z,59
2022-09-01T07:03:13.310Z,59
2022-09-01T07:13:15.143Z,57
2022-09-01T07:23:17.057Z,56
2022-09-01T07:33:42.303Z,55
2022-09-01T07:53:23.913Z,53
2022-09-01T08:03:26.184Z,50
2022-09-01T08:13:28.786Z,48
2022-09-01T08:23:31.406Z,46
2022-09-01T08:33:33.372Z,46
2022-09-01T08:43:35.869Z,44
2022-09-01T08:53:38.028Z,43
2022-09-01T09:03:41.120Z,42
2022-09-01T09:13:42.206Z,42
2022-09-01T09:23:44.723Z,42
2022-09-01T09:33:51.560Z,41
2022-09-01T09:43:49.271Z,39
2022-09-01T09:53:51.361Z,37
2022-09-01T10:03:53.187Z,38
2022-09-01T10:13:55.725Z,37
2022-09-01T10:24:16.305Z,36
2022-09-01T10:33:59.914Z,36
2022-09-01T10:54:04.519Z,36
2022-09-01T11:04:06.655Z,36
2022-09-01T11:14:08.807Z,36
2022-09-01T11:24:10.774Z,38
2022-09-01T11:34:13.359Z,36
2022-09-01T12:04:19.891Z,36
2022-09-01T12:14:21.635Z,37
2022-09-01T12:24:23.758Z,36
2022-09-01T12:34:26.206Z,33
2022-09-01T12:44:28.696Z,33
2022-09-01T12:54:30.666Z,31
2022-09-01T13:04:32.409Z,30
2022-09-01T13:14:34.645Z,30
2022-09-01T13:34:39.160Z,29
2022-09-01T13:44:41.246Z,28
2022-09-01T13:54:43.667Z,28
2022-09-01T14:04:45.758Z,28
2022-09-01T14:15:14.698Z,28
2022-09-01T14:24:49.624Z,29
2022-09-01T14:34:51.750Z,28
2022-09-01T14:44:54.321Z,27
2022-09-01T14:54:56.462Z,27
2022-09-01T15:04:58.257Z,27
2022-09-01T15:15:00.608Z,27
2022-09-01T15:25:02.721Z,27
2022-09-01T15:35:04.890Z,28
2022-09-01T15:45:07.218Z,27
2022-09-01T15:55:09.557Z,28
2022-09-01T16:05:11.438Z,27
2022-09-01T16:25:15.851Z,28
2022-09-01T16:35:17.645Z,28
2022-09-01T16:45:19.547Z,28
2022-09-01T16:55:21.420Z,30
2022-09-01T17:05:24.003Z,32
2022-09-01T17:15:26.523Z,33
2022-09-01T17:25:28.689Z,34
2022-09-01T17:35:31.106Z,34
2022-09-01T17:45:33.085Z,35
2022-09-01T17:55:34.996Z,36
2022-09-01T18:05:37.404Z,36
2022-09-01T18:15:39.868Z,37
2022-09-01T18:25:42.460Z,37
2022-09-01T18:35:44.261Z,38
2022-09-01T18:45:46.218Z,38
2022-09-01T18:55:47.996Z,38
2022-09-01T19:05:49.936Z,39
2022-09-01T19:15:51.940Z,40
2022-09-01T19:25:53.693Z,40
2022-09-01T19:35:55.469Z,40
2022-09-01T19:45:57.786Z,41
2022-09-01T19:56:00.355Z,42
2022-09-01T20:06:02.166Z,42
2022-09-01T20:16:04.452Z,43
2022-09-01T20:26:06.463Z,43
2022-09-01T20:36:08.563Z,44
2022-09-01T20:46:10.854Z,44
2022-09-01T20:56:12.690Z,45
2022-09-01T21:06:15.099Z,45
2022-09-01T21:16:17.384Z,46
2022-09-01T21:36:20.890Z,47
2022-09-01T21:46:23.155Z,47
2022-09-01T21:56:25.729Z,47
2022-09-01T22:06:26.833Z,48
2022-09-01T22:16:29.054Z,48
2022-09-01T22:26:31.332Z,48
2022-09-01T22:36:33.982Z,49
2022-09-01T22:46:36.234Z,49
2022-09-01T22:56:38.159Z,50
2022-09-01T23:16:43.122Z,51
2022-09-01T23:26:45.206Z,51
2022-09-01T23:36:47.474Z,52
2022-09-01T23:46:49.223Z,53
2022-09-01T23:56:51.229Z,53
